Terminal Aerodrome Forecast
Issued by NWS Newport/Morehead City, NC

Home | Current Version | Previous Version | Graphics & Text | Print | Product List | Glossary On
Versions: 1 2 3 4 5 6 7 8 9 10 11 12 13 14 15 16 17
084
FTUS42 KMHX 242259 AAB
TAFEWN
TAF AMD
KEWN 242259Z 2423/2518 21010KT 6SM SHRA VCTS BKN040CB
      TEMPO 2423/2501 VRB10G20KT 1SM +TSRA BKN006CB
     FM250100 21006KT 4SM SHRA VCTS SCT025CB OVC040
     FM250600 22006KT 4SM -SHRA VCTS SCT007 OVC020CB
     FM251400 25006KT P6SM BKN045=

USA.gov is the U.S. government's official web portal to all federal, state and local government web resources and services.